createdAt,value
2022-10-13T03:55:19.437Z,77.96
2022-10-13T03:58:43.490Z,78.44
2022-10-13T04:02:07.287Z,78.10
2022-10-13T04:05:33.507Z,78.32
2022-10-13T04:08:57.799Z,78.44
2022-10-13T04:12:21.499Z,78.58
2022-10-13T04:15:44.775Z,78.92
2022-10-13T04:19:11.793Z,78.94
2022-10-13T04:22:35.792Z,79.28
2022-10-13T04:25:58.991Z,79.24
2022-10-13T04:29:23.217Z,79.37
2022-10-13T04:32:48.920Z,79.62
2022-10-13T04:36:15.141Z,79.80
2022-10-13T04:39:38.348Z,79.78
2022-10-13T04:43:01.707Z,79.95
2022-10-13T04:46:26.746Z,79.69
2022-10-13T04:49:50.904Z,79.78
2022-10-13T04:53:19.072Z,79.98
2022-10-13T04:56:45.005Z,79.86
2022-10-13T05:00:10.679Z,79.86
2022-10-13T05:03:34.412Z,79.90
2022-10-13T05:07:18.060Z,80.04
2022-10-13T05:10:41.311Z,80.25
2022-10-13T05:14:04.685Z,80.35
2022-10-13T05:17:35.101Z,80.50
2022-10-13T05:21:07.952Z,80.56
2022-10-13T05:24:36.430Z,81.17
2022-10-13T05:27:59.853Z,80.69
2022-10-13T05:31:25.977Z,80.82
2022-10-13T05:34:50.172Z,80.54
2022-10-13T05:38:13.273Z,80.61
2022-10-13T05:41:38.711Z,80.76
2022-10-13T05:45:03.749Z,80.85
2022-10-13T05:48:27.910Z,80.76
2022-10-13T05:51:54.282Z,80.90
2022-10-13T05:55:19.638Z,80.95
2022-10-13T05:58:47.146Z,81.08
2022-10-13T06:02:14.676Z,81.16
2022-10-13T06:05:40.082Z,81.08
2022-10-13T06:09:03.544Z,80.89
2022-10-13T06:12:26.694Z,80.76
2022-10-13T06:15:52.738Z,80.49
2022-10-13T06:19:17.000Z,80.24
2022-10-13T06:22:40.307Z,79.87
2022-10-13T06:26:03.735Z,79.71
2022-10-13T06:29:28.353Z,78.97
2022-10-13T06:32:53.256Z,78.55
2022-10-13T06:36:16.507Z,78.40
2022-10-13T06:39:40.432Z,78.18
2022-10-13T06:43:04.363Z,77.71
2022-10-13T06:46:28.873Z,77.13
2022-10-13T06:49:52.292Z,76.73
2022-10-13T06:53:15.764Z,76.52
2022-10-13T06:56:39.020Z,76.16
2022-10-13T07:00:08.908Z,75.51
2022-10-13T07:03:32.644Z,75.18
2022-10-13T07:06:56.509Z,74.56
2022-10-13T07:10:19.772Z,74.43
2022-10-13T07:13:46.633Z,73.99
2022-10-13T07:17:12.449Z,73.36
2022-10-13T07:20:36.055Z,73.07
2022-10-13T07:23:59.522Z,72.73
2022-10-13T07:27:25.156Z,72.55
2022-10-13T07:30:49.215Z,72.28
2022-10-13T07:34:12.505Z,71.97
2022-10-13T07:37:36.111Z,71.78
2022-10-13T07:41:01.644Z,71.46
2022-10-13T07:44:25.990Z,71.06
2022-10-13T07:47:49.327Z,71.14
2022-10-13T07:51:13.362Z,71.04
2022-10-13T07:54:36.785Z,71.00
2022-10-13T07:58:03.155Z,70.98
2022-10-13T08:01:29.590Z,70.79
2022-10-13T08:04:53.272Z,71.25
2022-10-13T08:08:16.551Z,71.20
2022-10-13T08:11:40.168Z,71.17
2022-10-13T08:15:06.334Z,71.11
2022-10-13T08:18:30.725Z,70.93
2022-10-13T08:21:59.623Z,70.86
2022-10-13T08:25:23.538Z,70.61
2022-10-13T08:29:02.852Z,70.62
2022-10-13T08:32:26.729Z,70.45
2022-10-13T08:35:51.307Z,70.32
2022-10-13T08:39:15.455Z,70.14
2022-10-13T08:42:43.984Z,69.88
2022-10-13T08:46:10.571Z,69.74
2022-10-13T08:49:34.688Z,69.47
2022-10-13T08:53:00.732Z,69.09
2022-10-13T08:56:27.487Z,68.95
2022-10-13T08:59:53.186Z,68.82
2022-10-13T09:03:23.995Z,68.79
2022-10-13T09:06:52.838Z,68.53
2022-10-13T09:10:18.881Z,68.19
2022-10-13T09:13:42.557Z,67.96
2022-10-13T09:17:17.930Z,67.79
2022-10-13T09:20:41.997Z,67.48
2022-10-13T09:24:11.688Z,66.99
2022-10-13T09:27:40.793Z,66.86
2022-10-13T09:31:11.587Z,66.70
2022-10-13T09:34:37.586Z,66.40
2022-10-13T09:38:10.142Z,66.23
2022-10-13T09:41:34.056Z,65.98
2022-10-13T09:45:00.745Z,65.70
2022-10-13T09:48:29.782Z,65.37
2022-10-13T09:51:58.886Z,64.74
2022-10-13T09:55:32.844Z,64.27
2022-10-13T09:59:05.664Z,64.25
2022-10-13T10:02:33.857Z,63.44
2022-10-13T10:06:00.617Z,63.20
2022-10-13T10:09:34.635Z,63.27
2022-10-13T10:12:57.919Z,62.95
2022-10-13T10:16:30.625Z,62.85
2022-10-13T10:20:03.357Z,62.43
2022-10-13T10:23:37.566Z,61.88
2022-10-13T10:27:05.678Z,61.65
2022-10-13T10:30:31.054Z,61.52
2022-10-13T10:34:06.184Z,61.23
2022-10-13T10:37:55.107Z,60.65
2022-10-13T10:41:36.013Z,60.75
2022-10-13T10:45:03.091Z,60.20
2022-10-13T10:48:32.704Z,60.16
2022-10-13T10:51:55.384Z,59.81
2022-10-13T10:55:25.408Z,59.54
2022-10-13T10:59:00.358Z,59.53
2022-10-13T11:02:42.431Z,59.33
2022-10-13T11:06:21.422Z,59.13
2022-10-13T11:10:16.970Z,58.86
2022-10-13T11:13:52.047Z,58.35
2022-10-13T11:17:18.980Z,58.20
2022-10-13T11:20:58.819Z,57.96
2022-10-13T11:24:39.821Z,57.81
2022-10-13T11:28:42.830Z,57.58
2022-10-13T11:32:55.183Z,57.13
2022-10-13T11:36:50.824Z,56.57
2022-10-13T11:40:24.918Z,56.45
2022-10-13T11:43:55.675Z,56.32
2022-10-13T11:47:43.558Z,56.08
2022-10-13T11:51:20.313Z,55.91
2022-10-13T11:54:50.864Z,55.89
2022-10-13T11:58:18.674Z,55.56
2022-10-13T12:01:45.082Z,55.44
2022-10-13T12:05:22.080Z,55.40
2022-10-13T12:08:49.736Z,55.29
2022-10-13T12:12:16.987Z,55.07
2022-10-13T12:15:43.062Z,55.17
2022-10-13T12:19:20.290Z,55.04
2022-10-13T12:22:49.016Z,54.69
2022-10-13T12:26:17.498Z,54.82
2022-10-13T12:29:41.009Z,54.71
2022-10-13T12:33:19.119Z,54.20
2022-10-13T12:36:45.396Z,54.02
2022-10-13T12:40:15.138Z,53.99
2022-10-13T12:43:39.485Z,53.75
2022-10-13T12:47:03.815Z,53.66
2022-10-13T12:50:37.970Z,53.55
2022-10-13T12:54:05.625Z,53.76
2022-10-13T12:57:35.359Z,53.84
2022-10-13T13:01:08.322Z,53.88
2022-10-13T13:04:40.987Z,53.88
2022-10-13T13:08:19.862Z,53.98
2022-10-13T13:11:43.242Z,53.82
2022-10-13T13:15:36.925Z,53.78
2022-10-13T13:19:00.266Z,53.61
2022-10-13T13:22:25.530Z,53.57
2022-10-13T13:25:59.314Z,53.67
2022-10-13T13:29:22.999Z,53.63
2022-10-13T13:32:46.718Z,53.63
2022-10-13T13:36:17.690Z,53.61
2022-10-13T13:39:42.828Z,53.65
2022-10-13T13:43:08.051Z,53.66
2022-10-13T13:46:31.926Z,53.57
2022-10-13T13:49:56.517Z,53.20
2022-10-13T13:53:20.081Z,53.20
2022-10-13T13:56:43.603Z,53.50
2022-10-13T14:00:10.274Z,53.35
2022-10-13T14:03:35.211Z,52.97
2022-10-13T14:07:01.077Z,52.90
2022-10-13T14:10:26.044Z,52.94
2022-10-13T14:13:49.525Z,53.21
2022-10-13T14:17:20.662Z,52.99
2022-10-13T14:20:44.115Z,53.03
2022-10-13T14:24:09.721Z,52.86
2022-10-13T14:27:36.024Z,53.04
2022-10-13T14:30:59.765Z,52.86
2022-10-13T14:34:23.583Z,52.75
2022-10-13T14:37:46.911Z,52.90
2022-10-13T14:41:10.231Z,52.90
2022-10-13T14:44:34.015Z,52.71
2022-10-13T14:47:57.318Z,52.89
2022-10-13T14:51:20.984Z,52.94
2022-10-13T14:54:45.188Z,53.27
2022-10-13T14:58:09.078Z,53.40
2022-10-13T15:01:33.150Z,53.44
2022-10-13T15:04:57.403Z,53.56
2022-10-13T15:08:20.901Z,53.52
2022-10-13T15:11:45.659Z,53.66
2022-10-13T15:15:10.942Z,53.88
2022-10-13T15:18:35.894Z,53.96
2022-10-13T15:21:59.704Z,54.13
2022-10-13T15:25:23.584Z,54.25
2022-10-13T15:28:49.098Z,54.42
2022-10-13T15:32:17.514Z,54.71
2022-10-13T15:35:48.109Z,54.92
2022-10-13T15:39:11.595Z,55.18
2022-10-13T15:42:34.962Z,55.31
2022-10-13T15:46:02.175Z,55.60
2022-10-13T15:49:26.049Z,55.91
2022-10-13T15:52:49.727Z,56.24
2022-10-13T15:56:12.929Z,56.44
2022-10-13T15:59:36.228Z,56.77
2022-10-13T16:02:59.480Z,57.06
2022-10-13T16:06:22.790Z,57.18
2022-10-13T16:09:46.068Z,57.49
2022-10-13T16:13:13.572Z,57.75
2022-10-13T16:16:36.748Z,58.06
2022-10-13T16:20:00.603Z,58.32
2022-10-13T16:23:24.253Z,58.43
2022-10-13T16:26:47.443Z,58.73
2022-10-13T16:30:12.723Z,58.89
2022-10-13T16:33:36.553Z,59.12
2022-10-13T16:36:59.738Z,59.35
2022-10-13T16:40:23.074Z,59.64
2022-10-13T16:43:47.830Z,59.89
2022-10-13T16:47:13.627Z,60.15
2022-10-13T16:50:40.674Z,60.36
2022-10-13T16:54:05.014Z,60.44
2022-10-13T16:57:30.781Z,60.66
2022-10-13T17:01:01.271Z,60.85
2022-10-13T17:04:24.873Z,61.08
2022-10-13T17:07:48.717Z,61.13
2022-10-13T17:11:17.711Z,61.29
2022-10-13T17:14:41.006Z,61.47
2022-10-13T17:18:04.705Z,61.72
2022-10-13T17:21:28.232Z,61.85
2022-10-13T17:24:51.500Z,61.95
2022-10-13T17:28:15.240Z,62.17
2022-10-13T17:31:38.579Z,62.25
2022-10-13T17:35:02.355Z,62.52
2022-10-13T17:38:25.669Z,62.71
2022-10-13T17:41:48.970Z,62.93
2022-10-13T17:45:13.102Z,63.07
2022-10-13T17:48:37.026Z,63.25
2022-10-13T17:52:00.931Z,63.48
2022-10-13T17:55:24.713Z,63.60
2022-10-13T17:58:49.009Z,63.78
2022-10-13T18:02:13.977Z,63.94
2022-10-13T18:05:42.087Z,64.21
2022-10-13T18:09:07.784Z,64.24
2022-10-13T18:12:31.397Z,64.31
2022-10-13T18:15:55.213Z,64.38
2022-10-13T18:19:19.972Z,64.57
2022-10-13T18:22:43.319Z,64.62
2022-10-13T18:26:11.204Z,64.82
2022-10-13T18:31:16.161Z,65.15
2022-10-13T18:34:42.953Z,65.37
2022-10-13T18:38:09.639Z,65.58
2022-10-13T18:41:39.670Z,65.78
2022-10-13T18:45:07.855Z,66.05
2022-10-13T18:48:36.931Z,66.27
2022-10-13T18:52:04.550Z,66.36
2022-10-13T18:55:31.344Z,66.28
2022-10-13T18:59:00.266Z,66.30
2022-10-13T19:02:27.970Z,66.60
2022-10-13T19:05:54.819Z,66.41
2022-10-13T19:09:24.223Z,66.37
2022-10-13T19:12:50.947Z,66.41
2022-10-13T19:16:23.116Z,66.57
2022-10-13T19:19:49.942Z,66.55
2022-10-13T19:23:18.262Z,66.59
2022-10-13T19:26:44.903Z,66.69
2022-10-13T19:30:14.269Z,66.83
2022-10-13T19:33:44.668Z,66.57
2022-10-13T19:37:11.901Z,66.83
2022-10-13T19:40:42.476Z,66.95
2022-10-13T19:44:09.460Z,66.91
2022-10-13T19:47:38.059Z,66.97
2022-10-13T19:51:06.592Z,66.98
2022-10-13T19:54:35.863Z,67.15
2022-10-13T19:58:02.767Z,67.32
2022-10-13T20:01:29.657Z,67.25
2022-10-13T20:04:57.428Z,67.44
2022-10-13T20:08:24.408Z,67.39
2022-10-13T20:11:52.110Z,67.54
2022-10-13T20:15:18.923Z,67.47
2022-10-13T20:18:46.860Z,67.66
2022-10-13T20:22:13.762Z,67.81
2022-10-13T20:25:40.731Z,67.86
2022-10-13T20:29:07.385Z,67.90
2022-10-13T20:32:34.619Z,68.05
2022-10-13T20:36:03.299Z,68.08
2022-10-13T20:39:30.126Z,68.36
2022-10-13T20:42:56.722Z,68.21
2022-10-13T20:46:25.149Z,68.48
2022-10-13T20:49:52.720Z,68.64
2022-10-13T20:53:19.508Z,68.63
2022-10-13T20:56:49.392Z,68.81
2022-10-13T21:00:16.999Z,68.88
2022-10-13T21:03:44.365Z,68.90
2022-10-13T21:07:11.766Z,69.00
2022-10-13T21:10:39.781Z,69.03
2022-10-13T21:14:09.684Z,69.05
2022-10-13T21:17:42.521Z,69.14
2022-10-13T21:21:12.392Z,69.24
2022-10-13T21:24:41.185Z,69.20
2022-10-13T21:28:08.695Z,69.57
2022-10-13T21:31:36.950Z,69.55
2022-10-13T21:35:04.141Z,69.55
2022-10-13T21:38:30.929Z,69.94
2022-10-13T21:41:57.740Z,69.90
2022-10-13T21:45:26.308Z,70.06
2022-10-13T21:48:56.612Z,70.18
2022-10-13T21:52:23.654Z,70.43
2022-10-13T21:55:50.338Z,70.25
2022-10-13T21:59:17.024Z,70.55
2022-10-13T22:02:43.594Z,70.55
2022-10-13T22:06:18.295Z,70.73
2022-10-13T22:09:45.919Z,70.84
2022-10-13T22:13:12.699Z,71.07
2022-10-13T22:16:42.193Z,71.07
2022-10-13T22:20:10.535Z,71.15
2022-10-13T22:23:37.641Z,71.36
2022-10-13T22:27:04.259Z,71.29
2022-10-13T22:30:31.085Z,71.37
2022-10-13T22:33:58.347Z,71.52
2022-10-13T22:37:24.922Z,71.58
2022-10-13T22:40:51.564Z,71.62
2022-10-13T22:44:18.800Z,71.73
2022-10-13T22:47:45.391Z,71.61
